Time;durP1;ratioP1;P1;durP2;ratioP2;P2;SDS_P1;SDS_P2;PMS_P1;PMS_P2;Temp;Humidity;BMP_temperature;BMP_pressure;BME280_temperature;BME280_humidity;BME280_pressure;Samples;Min_cycle;Max_cycle;Signal;HPM_P1;HPM_P2
2023/09/19 00:06:01;;;;;;;15.10;12.80;;;;;;;16.80;98.89;98430.20;272571;1269;22250;-86
2023/09/19 00:12:06;;;;;;;17.50;14.50;;;;;;;16.82;98.94;98427.45;272860;1266;22188;-87
2023/09/19 00:18:46;;;;;;;19.50;13.60;;;;;;;16.81;98.97;98427.01;273899;1266;23450;-86
2023/09/19 00:25:35;;;;;;;16.60;13.30;;;;;;;16.73;99.10;98425.39;273692;1265;22204;-86
2023/09/19 00:32:47;;;;;;;18.80;14.10;;;;;;;16.72;99.49;98425.89;272583;1275;26242;-86
2023/09/19 00:39:59;;;;;;;28.30;17.40;;;;;;;16.64;99.96;98426.05;272906;1269;22664;-84
2023/09/19 00:46:26;;;;;;;28.10;16.80;;;;;;;16.52;100.00;98420.23;272784;1278;22245;-83
2023/09/19 00:52:53;;;;;;;22.10;16.60;;;;;;;16.48;100.00;98420.00;273508;1277;22215;-83
2023/09/19 00:59:22;;;;;;;24.50;16.80;;;;;;;16.46;100.00;98405.30;272819;1273;22397;-82
2023/09/19 01:05:58;;;;;;;20.10;16.60;;;;;;;16.38;100.00;98395.18;274245;1273;22530;-84
2023/09/19 01:20:50;;;;;;;21.60;16.70;;;;;;;16.60;100.00;98375.59;274439;1266;22204;-84
2023/09/19 02:20:16;;;;;;;18.30;15.40;;;;;;;16.86;100.00;98358.17;272819;1280;23176;-84
2023/09/19 02:26:18;;;;;;;21.70;16.00;;;;;;;16.92;100.00;98352.73;271531;1276;24237;-84
2023/09/19 02:33:22;;;;;;;20.00;17.40;;;;;;;16.98;100.00;98351.09;271151;1278;22220;-84
2023/09/19 02:40:35;;;;;;;21.40;17.50;;;;;;;16.97;100.00;98335.71;273519;1272;22212;-83
2023/09/19 02:47:05;;;;;;;27.30;19.00;;;;;;;17.02;100.00;98317.96;272465;1266;22197;-83
2023/09/19 02:53:58;;;;;;;23.00;17.80;;;;;;;17.02;100.00;98313.15;274416;1275;23167;-83
2023/09/19 03:24:46;;;;;;;23.30;17.60;;;;;;;17.11;100.00;98277.85;270859;1275;22432;-83
2023/09/19 03:31:07;;;;;;;21.70;17.40;;;;;;;17.12;100.00;98268.19;269551;1280;26195;-81
2023/09/19 03:38:00;;;;;;;24.50;18.30;;;;;;;17.09;100.00;98254.65;268826;1279;22560;-81
2023/09/19 03:44:02;;;;;;;21.00;18.10;;;;;;;17.09;100.00;98248.58;269442;1279;22577;-83
2023/09/19 03:58:02;;;;;;;;;;;;;;;17.15;100.00;98254.13;271210;1272;22503;-82
2023/09/19 04:12:12;;;;;;;21.00;18.10;;;;;;;17.19;100.00;98242.29;274452;1273;22243;-83
2023/09/19 04:26:21;;;;;;;21.40;16.10;;;;;;;17.29;100.00;98244.56;273016;1272;22202;-83
2023/09/19 04:32:51;;;;;;;24.60;18.00;;;;;;;17.32;100.00;98239.45;273727;1267;23071;-82
2023/09/19 04:46:42;;;;;;;20.80;16.50;;;;;;;17.39;100.00;98243.58;272610;1266;22193;-82
2023/09/19 04:53:08;;;;;;;27.30;19.50;;;;;;;17.44;100.00;98247.64;274451;1267;22104;-82
2023/09/19 05:07:29;;;;;;;20.10;17.10;;;;;;;17.40;100.00;98261.19;274376;1273;22967;-82
2023/09/19 05:14:01;;;;;;;23.70;18.10;;;;;;;17.38;100.00;98267.95;274442;1272;22177;-82
2023/09/19 05:20:54;;;;;;;26.10;17.90;;;;;;;17.42;100.00;98276.94;274445;1273;22185;-82
2023/09/19 05:27:57;;;;;;;24.10;20.20;;;;;;;17.48;100.00;98284.05;272932;1269;23897;-82
2023/09/19 05:34:34;;;;;;;27.70;18.80;;;;;;;17.51;100.00;98301.05;272445;1267;22290;-82
2023/09/19 05:41:36;;;;;;;24.50;19.30;;;;;;;17.50;100.00;98309.48;274183;1267;22228;-84
2023/09/19 05:48:23;;;;;;;29.30;22.20;;;;;;;17.42;100.00;98303.64;274318;1274;23225;-85
2023/09/19 05:54:27;;;;;;;30.70;22.60;;;;;;;17.45;100.00;98305.33;274277;1266;22488;-86
2023/09/19 06:09:18;;;;;;;34.60;23.90;;;;;;;17.41;100.00;98309.45;274042;1273;22869;-86
2023/09/19 06:16:22;;;;;;;27.80;19.80;;;;;;;17.39;100.00;98315.73;273594;1276;23106;-85
2023/09/19 06:30:07;;;;;;;29.60;22.60;;;;;;;17.42;100.00;98311.88;271538;1273;22445;-87
2023/09/19 06:36:09;;;;;;;29.30;23.50;;;;;;;17.43;100.00;98318.35;270735;1270;22544;-87
2023/09/19 06:49:55;;;;;;;31.80;22.60;;;;;;;17.41;100.00;98326.92;273939;1274;22259;-87
2023/09/19 06:56:24;;;;;;;30.50;23.00;;;;;;;17.44;100.00;98334.98;274228;1274;22173;-87
2023/09/19 07:10:23;;;;;;;37.30;22.10;;;;;;;17.38;100.00;98349.83;273852;1267;22569;-86
2023/09/19 07:48:48;;;;;;;28.70;19.10;;;;;;;17.35;100.00;98385.97;273720;1270;22448;-88
2023/09/19 08:10:48;;;;;;;10.10;4.50;;;;;;;17.14;100.00;98425.11;273384;1277;23376;-87
2023/09/19 08:24:52;;;;;;;13.00;4.90;;;;;;;16.97;100.00;98453.73;273960;1273;22213;-86
2023/09/19 08:39:14;;;;;;;10.70;6.20;;;;;;;16.87;100.00;98475.54;273498;1272;22627;-86
2023/09/19 09:01:35;;;;;;;10.80;5.60;;;;;;;16.87;100.00;98504.42;273937;1269;22189;-86
2023/09/19 09:15:29;;;;;;;10.50;7.60;;;;;;;16.92;100.00;98521.61;272914;1270;22198;-87
2023/09/19 09:22:23;;;;;;;15.10;7.50;;;;;;;16.96;100.00;98526.85;272050;1269;22226;-87
2023/09/19 09:29:34;;;;;;;10.50;7.20;;;;;;;16.99;100.00;98539.10;273908;1274;22180;-86
2023/09/19 09:35:36;;;;;;;10.20;6.40;;;;;;;17.01;100.00;98540.86;273930;1272;22190;-86
2023/09/19 09:41:53;;;;;;;13.90;6.50;;;;;;;17.04;100.00;98546.79;273749;1276;23217;-85
2023/09/19 09:47:59;;;;;;;11.30;6.20;;;;;;;17.09;100.00;98551.81;273610;1275;22510;-85
2023/09/19 10:02:46;;;;;;;9.20;5.60;;;;;;;17.17;100.00;98567.75;273338;1272;22319;-89
2023/09/19 10:24:44;;;;;;;9.90;6.00;;;;;;;17.26;100.00;98590.95;273209;1267;22258;-86
2023/09/19 10:38:57;;;;;;;7.20;5.60;;;;;;;17.37;100.00;98606.21;273225;1273;22834;-86
2023/09/19 10:53:15;;;;;;;8.00;5.80;;;;;;;17.39;100.00;98619.52;272678;1276;22567;-86
2023/09/19 11:45:11;;;;;;;13.30;7.10;;;;;;;17.47;100.00;98652.02;272515;1283;22223;-86
2023/09/19 12:15:40;;;;;;;16.00;9.90;;;;;;;17.48;100.00;98660.48;273493;1276;22207;-85
2023/09/19 12:22:32;;;;;;;15.20;9.50;;;;;;;17.51;100.00;98664.91;273562;1275;22231;-85
2023/09/19 12:29:38;;;;;;;18.90;12.20;;;;;;;17.55;100.00;98668.37;273663;1269;22230;-86
2023/09/19 13:23:09;;;;;;;10.00;5.80;;;;;;;17.74;100.00;98683.61;273122;1269;22521;-86
2023/09/19 13:30:58;;;;;;;15.20;8.00;;;;;;;17.78;100.00;98684.30;271805;1268;22501;-86
2023/09/19 13:38:49;;;;;;;21.20;9.10;;;;;;;17.87;100.00;98690.52;271655;1281;22260;-84
2023/09/19 14:08:38;;;;;;;9.30;6.40;;;;;;;18.31;100.00;98689.30;270625;1285;22259;-83
2023/09/19 14:15:08;;;;;;;8.40;6.10;;;;;;;18.47;100.00;98687.34;271287;1285;23151;-83
2023/09/19 14:21:25;;;;;;;11.10;6.90;;;;;;;18.56;100.00;98685.45;272188;1285;22217;-83
2023/09/19 14:27:52;;;;;;;;;;;;;;;18.53;100.00;98682.81;272234;1285;22437;-83
2023/09/19 14:33:56;;;;;;;10.00;6.90;;;;;;;18.45;100.00;98689.92;272648;1276;22156;-82
2023/09/19 14:40:22;;;;;;;14.30;7.00;;;;;;;18.37;100.00;98695.33;273834;1276;22200;-82
2023/09/19 14:54:51;;;;;;;8.80;7.50;;;;;;;18.39;100.00;98701.02;273699;1276;22188;-82
2023/09/19 15:01:57;;;;;;;13.30;7.00;;;;;;;18.41;100.00;98708.79;273660;1276;22436;-82
2023/09/19 15:08:59;;;;;;;7.70;5.70;;;;;;;18.47;100.00;98714.02;272575;1275;22298;-82
2023/09/19 15:15:08;;;;;;;8.10;6.40;;;;;;;18.49;100.00;98707.56;272616;1275;22224;-83
2023/09/19 15:28:54;;;;;;;9.80;5.40;;;;;;;18.40;100.00;98714.10;271441;1288;24252;-82
2023/09/19 15:43:39;;;;;;;8.80;5.20;;;;;;;18.29;100.00;98723.84;271255;1289;23161;-82
2023/09/19 15:58:43;;;;;;;14.70;8.20;;;;;;;18.23;100.00;98731.14;271551;1276;22212;-83
2023/09/19 16:05:23;;;;;;;12.90;7.70;;;;;;;18.21;100.00;98735.04;273014;1269;22185;-82
2023/09/19 16:12:22;;;;;;;8.10;6.10;;;;;;;18.17;100.00;98735.54;273766;1262;21905;-83
2023/09/19 16:42:54;;;;;;;10.50;5.00;;;;;;;18.01;100.00;98729.83;272302;1269;23866;-84
2023/09/19 16:48:56;;;;;;;6.60;4.30;;;;;;;17.98;100.00;98729.50;271745;1269;23695;-83
2023/09/19 16:55:14;;;;;;;8.90;4.80;;;;;;;17.95;100.00;98727.27;272944;1269;22434;-84
2023/09/19 17:01:35;;;;;;;8.40;4.40;;;;;;;17.93;100.00;98731.67;273364;1269;25247;-83
2023/09/19 17:08:17;;;;;;;6.00;4.80;;;;;;;17.91;100.00;98736.70;270715;1264;22553;-85
2023/09/19 17:14:44;;;;;;;7.10;4.60;;;;;;;17.85;100.00;98740.95;270688;1269;23651;-84
2023/09/19 17:21:27;;;;;;;8.20;4.30;;;;;;;17.79;100.00;98746.61;271583;1269;22536;-85
2023/09/19 17:27:28;;;;;;;8.30;4.60;;;;;;;17.71;100.00;98754.55;271426;1269;24221;-85
2023/09/19 17:34:11;;;;;;;7.10;4.40;;;;;;;17.61;100.00;98762.58;273864;1269;22196;-84
2023/09/19 17:40:21;;;;;;;6.20;4.00;;;;;;;17.49;100.00;98775.88;272992;1253;22548;-88
2023/09/19 17:46:24;;;;;;;6.70;4.10;;;;;;;17.42;100.00;98785.95;265343;1269;10002766;-85
2023/09/19 17:52:27;;;;;;;7.00;4.30;;;;;;;17.33;100.00;98795.38;273222;1269;22381;-85
2023/09/19 17:58:29;;;;;;;7.90;4.10;;;;;;;17.23;100.00;98802.77;272891;1270;22419;-84
2023/09/19 18:04:51;;;;;;;8.40;6.70;;;;;;;17.10;100.00;98808.91;273812;1269;22323;-85
2023/09/19 18:10:57;;;;;;;13.80;8.60;;;;;;;17.04;100.00;98820.26;273931;1266;22676;-84
2023/09/19 18:17:49;;;;;;;8.00;7.00;;;;;;;16.95;100.00;98830.58;273887;1269;22282;-85
2023/09/19 18:23:52;;;;;;;11.00;6.10;;;;;;;16.86;100.00;98841.81;273539;1269;22424;-85
2023/09/19 18:29:54;;;;;;;9.20;6.10;;;;;;;16.75;100.00;98846.17;273850;1269;22365;-85
2023/09/19 18:36:17;;;;;;;8.40;5.30;;;;;;;16.69;100.00;98849.02;273925;1270;22187;-85
2023/09/19 18:42:40;;;;;;;8.60;7.40;;;;;;;16.62;100.00;98857.27;273790;1269;22366;-85
2023/09/19 18:49:23;;;;;;;8.90;6.10;;;;;;;16.51;100.00;98857.76;273613;1269;22414;-87
2023/09/19 18:55:45;;;;;;;6.90;5.00;;;;;;;16.39;100.00;98861.70;273613;1269;22207;-85
2023/09/19 19:02:10;;;;;;;7.60;5.80;;;;;;;16.28;100.00;98865.33;273439;1269;22176;-85
2023/09/19 19:08:59;;;;;;;6.70;5.30;;;;;;;16.17;100.00;98867.83;273909;1276;22301;-85
2023/09/19 19:15:04;;;;;;;7.40;5.00;;;;;;;16.16;100.00;98870.77;273786;1269;23480;-85
2023/09/19 19:21:27;;;;;;;9.40;4.90;;;;;;;16.10;100.00;98874.00;273925;1269;22183;-85
2023/09/19 19:28:04;;;;;;;11.30;4.90;;;;;;;16.05;100.00;98881.81;273750;1270;22166;-84
2023/09/19 19:34:28;;;;;;;5.30;4.50;;;;;;;16.02;100.00;98889.89;273837;1269;22340;-85
2023/09/19 19:41:10;;;;;;;9.30;5.80;;;;;;;15.94;100.00;98896.45;273457;1270;22248;-84
2023/09/19 19:47:53;;;;;;;7.40;5.40;;;;;;;15.91;100.00;98889.54;272794;1269;22351;-85
2023/09/19 19:54:00;;;;;;;5.20;4.60;;;;;;;15.97;100.00;98896.90;271510;1269;22294;-85
2023/09/19 20:00:42;;;;;;;7.70;4.90;;;;;;;15.97;100.00;98898.40;272008;1266;22209;-84
2023/09/19 20:07:42;;;;;;;9.90;5.20;;;;;;;16.02;100.00;98893.90;271987;1272;23009;-85
2023/09/19 20:14:26;;;;;;;6.70;5.10;;;;;;;16.06;100.00;98901.52;271395;1272;22564;-85
2023/09/19 20:20:49;;;;;;;8.70;5.10;;;;;;;16.06;100.00;98905.77;272699;1266;22249;-85
2023/09/19 20:27:13;;;;;;;12.10;5.60;;;;;;;16.11;100.00;98909.71;272892;1272;22201;-84
2023/09/19 20:33:38;;;;;;;7.70;5.10;;;;;;;16.11;100.00;98908.55;273139;1272;22230;-85
2023/09/19 20:40:00;;;;;;;8.10;5.20;;;;;;;16.02;100.00;98915.05;273745;1270;22218;-83
2023/09/19 20:46:04;;;;;;;6.40;4.90;;;;;;;15.97;100.00;98921.73;273759;1269;22207;-82
2023/09/19 20:52:26;;;;;;;10.70;6.30;;;;;;;15.95;100.00;98923.18;274065;1273;22672;-83
2023/09/19 20:59:11;;;;;;;7.10;5.20;;;;;;;15.89;100.00;98923.17;274020;1276;22375;-84
2023/09/19 21:06:15;;;;;;;7.90;5.10;;;;;;;15.78;100.00;98922.81;273986;1276;22174;-84
2023/09/19 21:12:58;;;;;;;4.90;4.20;;;;;;;15.66;100.00;98925.30;273715;1273;23072;-84
2023/09/19 21:19:28;;;;;;;9.00;4.40;;;;;;;15.60;100.00;98927.42;273747;1269;22225;-83
2023/09/19 21:25:32;;;;;;;9.70;4.30;;;;;;;15.57;100.00;98930.77;273927;1270;22445;-83
2023/09/19 21:32:15;;;;;;;10.40;4.90;;;;;;;15.53;100.00;98930.31;274027;1276;22188;-83
2023/09/19 21:38:38;;;;;;;13.50;5.00;;;;;;;15.50;100.00;98932.63;273615;1269;22455;-83
2023/09/19 21:45:21;;;;;;;7.50;4.30;;;;;;;15.42;100.00;98928.77;273940;1272;22870;-83
2023/09/19 21:51:43;;;;;;;7.00;4.20;;;;;;;15.33;100.00;98931.91;273949;1276;22304;-83
2023/09/19 21:58:05;;;;;;;5.20;3.70;;;;;;;15.25;100.00;98928.20;273844;1273;22241;-83
2023/09/19 22:04:11;;;;;;;7.70;3.10;;;;;;;15.11;100.00;98930.67;273682;1275;22187;-83
2023/09/19 22:10:59;;;;;;;8.80;3.50;;;;;;;14.97;100.00;98931.66;273779;1276;22172;-83
2023/09/19 22:17:22;;;;;;;13.80;4.40;;;;;;;14.86;100.00;98924.71;273453;1277;22319;-84
2023/09/19 22:24:06;;;;;;;7.10;3.90;;;;;;;14.76;100.00;98924.86;273983;1276;23566;-83
2023/09/19 22:30:46;;;;;;;5.80;4.40;;;;;;;14.69;100.00;98923.81;273827;1272;22176;-83
2023/09/19 22:37:29;;;;;;;6.30;4.60;;;;;;;14.65;100.00;98916.92;273757;1270;22181;-83
2023/09/19 22:43:35;;;;;;;8.70;3.50;;;;;;;14.56;100.00;98912.08;273927;1276;22866;-83
2023/09/19 22:49:57;;;;;;;6.60;3.20;;;;;;;14.47;100.00;98913.95;273750;1277;22207;-83
2023/09/19 22:56:22;;;;;;;8.10;3.70;;;;;;;14.38;100.00;98923.53;273880;1270;22588;-83
2023/09/19 23:02:59;;;;;;;5.90;4.10;;;;;;;14.29;100.00;98929.39;273685;1270;23223;-83
2023/09/19 23:09:00;;;;;;;8.60;4.60;;;;;;;14.23;100.00;98929.55;273207;1269;22657;-83
2023/09/19 23:15:05;;;;;;;13.00;3.50;;;;;;;14.20;100.00;98931.92;272981;1269;25572;-83
2023/09/19 23:21:27;;;;;;;11.60;4.00;;;;;;;14.17;100.00;98929.96;271575;1269;23279;-83
2023/09/19 23:28:04;;;;;;;6.90;4.10;;;;;;;14.09;100.00;98928.20;271262;1270;22469;-83
2023/09/19 23:34:07;;;;;;;7.30;3.60;;;;;;;13.97;100.00;98933.81;271042;1270;22551;-84
2023/09/19 23:41:20;;;;;;;10.80;3.60;;;;;;;13.83;100.00;98937.32;273361;1269;22446;-84
2023/09/19 23:47:35;;;;;;;6.10;3.60;;;;;;;13.81;100.00;98939.30;272269;1269;22378;-83
2023/09/19 23:54:26;;;;;;;6.00;4.00;;;;;;;13.75;100.00;98941.35;273821;1270;22380;-84
